METAR AND TAF INFORMATION
METAR FOR NSTU
ADDS - METARS form results

(2034 UTC 23 September 2020)
Data provider http://aviationweather.gov/metar/data/
 
METAR text: NSTU 232000Z VRB04KT 12SM FEW021 BKN120 28/23 A2994 RMK SLP141 T02760233
Conditions at: NSTU (PAGO PAGO , WS) observed 2000 UTC 23 September 2020
Temperature: 27.6°C (82°F)
Dewpoint: 23.3°C (74°F) [RH = 77%]
Pressure (altimeter): 29.94 inches Hg (1014.0 mb)
[Sea-level pressure: 1014.1 mb]
Winds: variable direction winds at 5 MPH (4 knots; 2.1 m/s)
Visibility: 12 miles (19 km)
Ceiling: 12000 feet AGL
Clouds: few clouds at 2100 feet AGL
broken clouds at 12000 feet AGL
Weather: no significant weather observed at this time

METAR text: NSTU 231950Z VRB04KT 12SM FEW021 BKN120 28/23 A2994 RMK SLP141 T02760233
Conditions at: NSTU (PAGO PAGO , WS) observed 1950 UTC 23 September 2020
Temperature: 27.6°C (82°F)
Dewpoint: 23.3°C (74°F) [RH = 77%]
Pressure (altimeter): 29.94 inches Hg (1014.0 mb)
[Sea-level pressure: 1014.1 mb]
Winds: variable direction winds at 5 MPH (4 knots; 2.1 m/s)
Visibility: 12 miles (19 km)
Ceiling: 12000 feet AGL
Clouds: few clouds at 2100 feet AGL
broken clouds at 12000 feet AGL
Weather: no significant weather observed at this time

Forecast for: NSTU (PAGO PAGO , WS)
Text: NSTU 231720Z 2318/2418 12009KT P6SM VCSH SCT019 SCT040 BKN100
Forecast period: 1800 UTC 23 September 2020 to 1800 UTC 24 September 2020
Forecast type: FROM: standard forecast or significant change
Winds: from the ESE (120 degrees) at 10 MPH (9 knots; 4.6 m/s)
Visibility: 6 or more miles (10+ km)
Ceiling: 10000 feet AGL
Clouds: scattered clouds at 1900 feet AGL
scattered clouds at 4000 feet AGL
broken clouds at 10000 feet AGL
Weather: VCSH  (showers in vicinity)

 AIRPORT MAP

 RUNWAY INFORMATION
Runway 05 Runway length 10000 ft Runway width 150 ft
Runway elevation 30 ft Runway displaced threshold 1000 ft Runway heading 60
Runway 23 Runway length 10000 ft Runway width 150 ft
Runway elevation 9 ft Runway displaced threshold 800 ft Runway heading 240
Runway 08 Runway length 3800 ft Runway width 100 ft
Runway elevation 6 ft Runway displaced threshold 1600 ft Runway heading 90
Runway 26 Runway length 3800 ft Runway width 100 ft
Runway elevation 5 ft Runway displaced threshold 0 ft Runway heading 270

 AIRPORT FREQUENCIES
Type A/D Name FALEOLO AP Frequency 126.9 MHZ
Type CTAF Name CTAF Frequency 122.9 MHZ
Type UNIC Name UNICOM Frequency 118.3 MHZ

 AIRPORT NEAR NAVIGATION AIDS
Type NDB Name Logotala Hill Frequency 242 KHZ
Type VORTAC Name Pago Pago Frequency 112500 KHZ
Type NDB Name Pago Pago Frequency 403 KHZ



Powered by Virtual Airlines Manager [v2.6.2]